sensor_id;sensor_type;location;lat;lon;timestamp;pressure;altitude;pressure_sealevel;temperature;humidity
17607;BME280;69222;52.242;20.980;2023-04-24T00:00:58;99415.47;;;15.79;40.55
17607;BME280;69222;52.242;20.980;2023-04-24T00:03:27;99411.19;;;15.78;41.07
17607;BME280;69222;52.242;20.980;2023-04-24T00:05:56;99417.16;;;15.80;40.65
17607;BME280;69222;52.242;20.980;2023-04-24T00:08:25;99414.56;;;15.80;41.17
17607;BME280;69222;52.242;20.980;2023-04-24T00:10:53;99408.72;;;15.75;41.05
17607;BME280;69222;52.242;20.980;2023-04-24T00:13:21;99410.47;;;15.75;41.35
17607;BME280;69222;52.242;20.980;2023-04-24T00:15:51;99412.22;;;15.74;41.54
17607;BME280;69222;52.242;20.980;2023-04-24T00:18:19;99410.41;;;15.76;40.92
17607;BME280;69222;52.242;20.980;2023-04-24T00:20:49;99400.16;;;15.73;41.36
17607;BME280;69222;52.242;20.980;2023-04-24T00:23:17;99399.16;;;15.76;41.64
17607;BME280;69222;52.242;20.980;2023-04-24T00:25:48;99398.19;;;15.78;41.49
17607;BME280;69222;52.242;20.980;2023-04-24T00:28:16;99393.97;;;15.76;41.49
17607;BME280;69222;52.242;20.980;2023-04-24T00:30:44;99394.38;;;15.66;41.71
17607;BME280;69222;52.242;20.980;2023-04-24T00:33:13;99390.94;;;15.64;41.73
17607;BME280;69222;52.242;20.980;2023-04-24T00:35:41;99391.94;;;15.62;41.81
17607;BME280;69222;52.242;20.980;2023-04-24T00:38:09;99397.13;;;15.62;41.83
17607;BME280;69222;52.242;20.980;2023-04-24T00:40:37;99397.06;;;15.63;41.86
17607;BME280;69222;52.242;20.980;2023-04-24T00:43:05;99393.81;;;15.58;42.46
17607;BME280;69222;52.242;20.980;2023-04-24T00:45:36;99403.38;;;15.58;42.31
17607;BME280;69222;52.242;20.980;2023-04-24T00:48:04;99397.38;;;15.56;42.62
17607;BME280;69222;52.242;20.980;2023-04-24T00:50:35;99391.28;;;15.57;42.27
17607;BME280;69222;52.242;20.980;2023-04-24T00:53:03;99397.38;;;15.56;42.66
17607;BME280;69222;52.242;20.980;2023-04-24T00:55:32;99403.69;;;15.50;42.19
17607;BME280;69222;52.242;20.980;2023-04-24T00:58:00;99396.38;;;15.39;42.21
17607;BME280;69222;52.242;20.980;2023-04-24T01:00:28;99394.94;;;15.32;42.80
17607;BME280;69222;52.242;20.980;2023-04-24T01:02:58;99392.56;;;15.26;42.51
17607;BME280;69222;52.242;20.980;2023-04-24T01:05:29;99402.16;;;15.24;42.57
17607;BME280;69222;52.242;20.980;2023-04-24T01:07:59;99393.50;;;15.25;43.06
17607;BME280;69222;52.242;20.980;2023-04-24T01:10:29;99398.47;;;15.30;42.98
17607;BME280;69222;52.242;20.980;2023-04-24T01:12:58;99397.66;;;15.29;42.37
17607;BME280;69222;52.242;20.980;2023-04-24T01:15:26;99404.50;;;15.30;42.37
17607;BME280;69222;52.242;20.980;2023-04-24T01:17:54;99400.25;;;15.29;42.23
17607;BME280;69222;52.242;20.980;2023-04-24T01:20:23;99400.25;;;15.29;42.44
17607;BME280;69222;52.242;20.980;2023-04-24T01:22:54;99393.22;;;15.31;42.50
17607;BME280;69222;52.242;20.980;2023-04-24T01:25:24;99393.22;;;15.31;42.49
17607;BME280;69222;52.242;20.980;2023-04-24T01:27:54;99389.84;;;15.29;42.31
17607;BME280;69222;52.242;20.980;2023-04-24T01:30:22;99386.53;;;15.26;42.15
17607;BME280;69222;52.242;20.980;2023-04-24T01:32:51;99390.78;;;15.28;42.70
17607;BME280;69222;52.242;20.980;2023-04-24T01:35:19;99386.47;;;15.27;42.07
17607;BME280;69222;52.242;20.980;2023-04-24T01:37:47;99385.59;;;15.28;42.41
17607;BME280;69222;52.242;20.980;2023-04-24T01:40:17;99379.47;;;15.29;42.33
17607;BME280;69222;52.242;20.980;2023-04-24T01:42:45;99380.38;;;15.28;42.41
17607;BME280;69222;52.242;20.980;2023-04-24T01:45:13;99359.78;;;15.23;41.92
17607;BME280;69222;52.242;20.980;2023-04-24T01:47:41;99375.97;;;15.30;42.24
17607;BME280;69222;52.242;20.980;2023-04-24T01:50:10;99366.50;;;15.29;42.05
17607;BME280;69222;52.242;20.980;2023-04-24T01:52:38;99367.41;;;15.28;41.75
17607;BME280;69222;52.242;20.980;2023-04-24T01:55:07;99363.06;;;15.29;41.80
17607;BME280;69222;52.242;20.980;2023-04-24T01:57:37;99362.22;;;15.28;41.98
17607;BME280;69222;52.242;20.980;2023-04-24T02:00:06;99365.69;;;15.27;42.00
17607;BME280;69222;52.242;20.980;2023-04-24T02:02:34;99360.63;;;15.24;41.95
17607;BME280;69222;52.242;20.980;2023-04-24T02:05:03;99353.88;;;15.20;41.82
17607;BME280;69222;52.242;20.980;2023-04-24T02:07:33;99348.69;;;15.20;41.79
17607;BME280;69222;52.242;20.980;2023-04-24T02:10:01;99350.56;;;15.16;41.85
17607;BME280;69222;52.242;20.980;2023-04-24T02:12:30;99348.19;;;15.12;42.51
17607;BME280;69222;52.242;20.980;2023-04-24T02:15:00;99350.06;;;15.08;42.19
17607;BME280;69222;52.242;20.980;2023-04-24T02:17:28;99342.38;;;15.05;42.42
17607;BME280;69222;52.242;20.980;2023-04-24T02:19:57;99344.94;;;15.07;42.09
17607;BME280;69222;52.242;20.980;2023-04-24T02:22:25;99339.06;;;15.02;42.99
17607;BME280;69222;52.242;20.980;2023-04-24T02:24:53;99348.56;;;15.03;42.94
17607;BME280;69222;52.242;20.980;2023-04-24T02:27:21;99351.28;;;15.00;43.70
17607;BME280;69222;52.242;20.980;2023-04-24T02:29:50;99356.59;;;14.96;44.73
17607;BME280;69222;52.242;20.980;2023-04-24T02:32:19;99350.06;;;14.86;44.47
17607;BME280;69222;52.242;20.980;2023-04-24T02:34:47;99337.44;;;14.79;44.34
17607;BME280;69222;52.242;20.980;2023-04-24T02:37:15;99338.34;;;14.78;44.09
17607;BME280;69222;52.242;20.980;2023-04-24T02:39:43;99327.44;;;14.69;44.76
17607;BME280;69222;52.242;20.980;2023-04-24T02:42:11;99338.75;;;14.67;44.29
17607;BME280;69222;52.242;20.980;2023-04-24T02:44:38;99337.97;;;14.65;44.76
17607;BME280;69222;52.242;20.980;2023-04-24T02:47:07;99335.50;;;14.62;44.77
17607;BME280;69222;52.242;20.980;2023-04-24T02:49:36;99339.97;;;14.58;44.77
17607;BME280;69222;52.242;20.980;2023-04-24T02:52:05;99335.75;;;14.56;44.60
17607;BME280;69222;52.242;20.980;2023-04-24T02:54:33;99334.06;;;14.55;44.79
17607;BME280;69222;52.242;20.980;2023-04-24T02:57:01;99328.19;;;14.49;44.90
17607;BME280;69222;52.242;20.980;2023-04-24T02:59:29;99336.13;;;14.45;44.55
17607;BME280;69222;52.242;20.980;2023-04-24T03:01:58;99338.78;;;14.43;44.43
17607;BME280;69222;52.242;20.980;2023-04-24T03:04:26;99328.69;;;14.36;45.02
17607;BME280;69222;52.242;20.980;2023-04-24T03:06:56;99333.75;;;14.39;45.71
17607;BME280;69222;52.242;20.980;2023-04-24T03:09:24;99325.34;;;14.34;46.07
17607;BME280;69222;52.242;20.980;2023-04-24T03:11:52;99325.34;;;14.34;45.56
17607;BME280;69222;52.242;20.980;2023-04-24T03:14:20;99327.97;;;14.32;45.97
17607;BME280;69222;52.242;20.980;2023-04-24T03:16:48;99318.63;;;14.28;45.30
17607;BME280;69222;52.242;20.980;2023-04-24T03:19:16;99331.59;;;14.28;45.64
17607;BME280;69222;52.242;20.980;2023-04-24T03:21:44;99329.06;;;14.26;46.48
17607;BME280;69222;52.242;20.980;2023-04-24T03:24:14;99330.00;;;14.24;46.21
17607;BME280;69222;52.242;20.980;2023-04-24T03:26:42;99337.78;;;14.24;45.96
17607;BME280;69222;52.242;20.980;2023-04-24T03:29:10;99337.03;;;14.22;45.98
17607;BME280;69222;52.242;20.980;2023-04-24T03:31:37;99340.50;;;14.21;46.44
17607;BME280;69222;52.242;20.980;2023-04-24T03:34:05;99337.13;;;14.19;46.93
17607;BME280;69222;52.242;20.980;2023-04-24T03:36:33;99338.91;;;14.17;46.50
17607;BME280;69222;52.242;20.980;2023-04-24T03:39:01;99332.06;;;14.16;46.47
17607;BME280;69222;52.242;20.980;2023-04-24T03:41:31;99341.47;;;14.18;46.33
17607;BME280;69222;52.242;20.980;2023-04-24T03:43:59;99332.72;;;14.21;46.52
17607;BME280;69222;52.242;20.980;2023-04-24T03:46:27;99337.75;;;14.25;46.53
17607;BME280;69222;52.242;20.980;2023-04-24T03:48:55;99330.81;;;14.26;46.18
17607;BME280;69222;52.242;20.980;2023-04-24T03:51:23;99341.84;;;14.31;45.35
17607;BME280;69222;52.242;20.980;2023-04-24T03:53:51;99339.03;;;14.37;45.19
17607;BME280;69222;52.242;20.980;2023-04-24T03:56:19;99331.97;;;14.41;44.73
17607;BME280;69222;52.242;20.980;2023-04-24T03:58:49;99332.88;;;14.40;44.99
17607;BME280;69222;52.242;20.980;2023-04-24T04:01:17;99335.50;;;14.38;45.18
17607;BME280;69222;52.242;20.980;2023-04-24T04:03:45;99331.25;;;14.37;45.18
17607;BME280;69222;52.242;20.980;2023-04-24T04:06:13;99338.94;;;14.39;44.96
17607;BME280;69222;52.242;20.980;2023-04-24T04:08:41;99334.59;;;14.39;44.80
17607;BME280;69222;52.242;20.980;2023-04-24T04:11:10;99329.31;;;14.42;44.77
17607;BME280;69222;52.242;20.980;2023-04-24T04:13:38;99328.16;;;14.51;45.10
17607;BME280;69222;52.242;20.980;2023-04-24T04:16:08;99336.34;;;14.62;44.46
17607;BME280;69222;52.242;20.980;2023-04-24T04:18:36;99337.81;;;14.69;44.22
17607;BME280;69222;52.242;20.980;2023-04-24T04:21:04;99333.19;;;14.76;43.73
17607;BME280;69222;52.242;20.980;2023-04-24T04:23:32;99340.13;;;14.76;44.34
17607;BME280;69222;52.242;20.980;2023-04-24T04:26:00;99344.06;;;14.64;44.43
17607;BME280;69222;52.242;20.980;2023-04-24T04:28:28;99331.41;;;14.56;44.42
17607;BME280;69222;52.242;20.980;2023-04-24T04:30:57;99336.41;;;14.61;44.76
17607;BME280;69222;52.242;20.980;2023-04-24T04:33:27;99330.97;;;14.67;44.44
17607;BME280;69222;52.242;20.980;2023-04-24T04:35:54;99340.22;;;14.74;44.65
17607;BME280;69222;52.242;20.980;2023-04-24T04:38:24;99345.00;;;14.83;44.38
17607;BME280;69222;52.242;20.980;2023-04-24T04:40:53;99341.16;;;14.93;44.34
17607;BME280;69222;52.242;20.980;2023-04-24T04:43:23;99340.63;;;15.06;43.73
17607;BME280;69222;52.242;20.980;2023-04-24T04:45:51;99334.16;;;15.16;43.40
17607;BME280;69222;52.242;20.980;2023-04-24T04:48:21;99333.59;;;15.30;43.26
17607;BME280;69222;52.242;20.980;2023-04-24T04:50:50;99325.22;;;15.43;43.19
17607;BME280;69222;52.242;20.980;2023-04-24T04:53:18;99324.47;;;15.60;42.76
17607;BME280;69222;52.242;20.980;2023-04-24T04:55:46;99321.53;;;15.69;42.38
17607;BME280;69222;52.242;20.980;2023-04-24T04:58:15;99324.63;;;15.78;42.48
17607;BME280;69222;52.242;20.980;2023-04-24T05:00:43;99322.31;;;15.90;41.93
17607;BME280;69222;52.242;20.980;2023-04-24T05:03:10;99316.63;;;16.01;42.03
17607;BME280;69222;52.242;20.980;2023-04-24T05:05:44;99321.84;;;16.20;41.56
17607;BME280;69222;52.242;20.980;2023-04-24T05:08:14;99310.72;;;16.35;41.32
17607;BME280;69222;52.242;20.980;2023-04-24T05:10:53;99312.28;;;16.57;40.46
17607;BME280;69222;52.242;20.980;2023-04-24T05:13:21;99320.81;;;16.79;40.39
17607;BME280;69222;52.242;20.980;2023-04-24T05:16:05;99315.16;;;17.06;40.06
17607;BME280;69222;52.242;20.980;2023-04-24T05:18:33;99312.22;;;17.29;39.52
17607;BME280;69222;52.242;20.980;2023-04-24T05:21:01;99316.91;;;17.56;38.80
17607;BME280;69222;52.242;20.980;2023-04-24T05:23:30;99312.91;;;17.83;38.58
17607;BME280;69222;52.242;20.980;2023-04-24T05:25:58;99312.63;;;18.05;37.79
17607;BME280;69222;52.242;20.980;2023-04-24T05:28:26;99317.75;;;18.23;37.50
17607;BME280;69222;52.242;20.980;2023-04-24T05:30:55;99312.53;;;18.39;36.84
17607;BME280;69222;52.242;20.980;2023-04-24T05:33:23;99315.06;;;18.56;36.43
17607;BME280;69222;52.242;20.980;2023-04-24T05:35:51;99308.38;;;18.82;36.01
17607;BME280;69222;52.242;20.980;2023-04-24T05:38:19;99319.50;;;19.00;35.79
17607;BME280;69222;52.242;20.980;2023-04-24T05:40:49;99310.53;;;19.20;35.89
17607;BME280;69222;52.242;20.980;2023-04-24T05:43:17;99299.28;;;19.34;35.68
17607;BME280;69222;52.242;20.980;2023-04-24T05:45:45;99305.41;;;19.63;35.78
17607;BME280;69222;52.242;20.980;2023-04-24T05:48:13;99309.69;;;19.78;35.46
17607;BME280;69222;52.242;20.980;2023-04-24T05:50:41;99301.44;;;19.98;34.88
17607;BME280;69222;52.242;20.980;2023-04-24T05:53:09;99304.69;;;20.16;34.10
17607;BME280;69222;52.242;20.980;2023-04-24T05:55:38;99294.00;;;20.34;33.47
17607;BME280;69222;52.242;20.980;2023-04-24T05:58:07;99292.84;;;20.52;32.87
17607;BME280;69222;52.242;20.980;2023-04-24T06:00:35;99296.47;;;20.77;32.51
17607;BME280;69222;52.242;20.980;2023-04-24T06:03:04;99298.31;;;21.02;31.82
17607;BME280;69222;52.242;20.980;2023-04-24T06:05:32;99291.44;;;21.26;31.92
17607;BME280;69222;52.242;20.980;2023-04-24T06:08:01;99286.97;;;21.41;31.60
17607;BME280;69222;52.242;20.980;2023-04-24T06:10:29;99290.22;;;21.44;31.68
17607;BME280;69222;52.242;20.980;2023-04-24T06:12:58;99289.66;;;21.27;31.60
17607;BME280;69222;52.242;20.980;2023-04-24T06:15:30;99287.69;;;21.17;31.88
17607;BME280;69222;52.242;20.980;2023-04-24T06:17:58;99289.84;;;21.23;32.17
17607;BME280;69222;52.242;20.980;2023-04-24T06:20:26;99286.53;;;21.21;31.62
17607;BME280;69222;52.242;20.980;2023-04-24T06:22:54;99280.41;;;21.08;32.31
17607;BME280;69222;52.242;20.980;2023-04-24T06:25:24;99284.31;;;21.15;32.19
17607;BME280;69222;52.242;20.980;2023-04-24T06:27:52;99285.19;;;21.41;31.99
17607;BME280;69222;52.242;20.980;2023-04-24T06:30:20;99282.47;;;21.56;31.57
17607;BME280;69222;52.242;20.980;2023-04-24T06:32:50;99278.78;;;21.58;31.71
17607;BME280;69222;52.242;20.980;2023-04-24T06:35:19;99275.50;;;21.67;31.54
17607;BME280;69222;52.242;20.980;2023-04-24T06:37:47;99283.59;;;21.77;30.84
17607;BME280;69222;52.242;20.980;2023-04-24T06:40:15;99276.53;;;21.90;30.70
17607;BME280;69222;52.242;20.980;2023-04-24T06:42:45;99274.69;;;22.16;30.71
17607;BME280;69222;52.242;20.980;2023-04-24T06:45:13;99270.44;;;22.39;30.57
17607;BME280;69222;52.242;20.980;2023-04-24T06:47:41;99273.88;;;22.64;30.22
17607;BME280;69222;52.242;20.980;2023-04-24T06:50:10;99274.06;;;22.85;29.60
17607;BME280;69222;52.242;20.980;2023-04-24T06:52:39;99269.72;;;23.08;29.28
17607;BME280;69222;52.242;20.980;2023-04-24T06:55:07;99273.00;;;23.23;28.97
17607;BME280;69222;52.242;20.980;2023-04-24T06:57:36;99276.84;;;23.41;28.53
17607;BME280;69222;52.242;20.980;2023-04-24T07:00:06;99271.72;;;23.62;28.33
17607;BME280;69222;52.242;20.980;2023-04-24T07:02:36;99266.94;;;23.78;27.76
17607;BME280;69222;52.242;20.980;2023-04-24T07:05:04;99273.53;;;23.95;27.71
17607;BME280;69222;52.242;20.980;2023-04-24T07:07:34;99269.84;;;24.30;27.28
17607;BME280;69222;52.242;20.980;2023-04-24T07:10:05;99261.31;;;24.81;26.67
17607;BME280;69222;52.242;20.980;2023-04-24T07:12:33;99262.41;;;25.41;26.07
17607;BME280;69222;52.242;20.980;2023-04-24T07:15:02;99260.41;;;25.85;25.41
17607;BME280;69222;52.242;20.980;2023-04-24T07:17:30;99261.44;;;26.23;24.60
17607;BME280;69222;52.242;20.980;2023-04-24T07:19:58;99261.63;;;26.50;24.40
17607;BME280;69222;52.242;20.980;2023-04-24T07:22:26;99260.63;;;26.32;24.57
17607;BME280;69222;52.242;20.980;2023-04-24T07:24:55;99262.59;;;25.49;25.54
17607;BME280;69222;52.242;20.980;2023-04-24T07:27:25;99261.16;;;24.62;26.90
17607;BME280;69222;52.242;20.980;2023-04-24T07:29:53;99263.75;;;23.86;27.86
17607;BME280;69222;52.242;20.980;2023-04-24T07:32:21;99270.88;;;23.28;28.73
17607;BME280;69222;52.242;20.980;2023-04-24T07:34:49;99268.09;;;22.83;29.71
17607;BME280;69222;52.242;20.980;2023-04-24T07:37:16;99268.91;;;22.48;30.54
17607;BME280;69222;52.242;20.980;2023-04-24T07:39:44;99260.38;;;22.33;30.83
17607;BME280;69222;52.242;20.980;2023-04-24T07:42:14;99266.78;;;22.53;30.88
17607;BME280;69222;52.242;20.980;2023-04-24T07:44:42;99249.09;;;23.26;29.53
17607;BME280;69222;52.242;20.980;2023-04-24T07:47:09;99261.78;;;23.21;29.59
17607;BME280;69222;52.242;20.980;2023-04-24T07:49:37;99261.41;;;22.90;29.96
17607;BME280;69222;52.242;20.980;2023-04-24T07:52:05;99260.47;;;22.56;30.88
17607;BME280;69222;52.242;20.980;2023-04-24T07:54:33;99264.72;;;22.22;31.58
17607;BME280;69222;52.242;20.980;2023-04-24T07:57:02;99264.25;;;21.91;32.23
17607;BME280;69222;52.242;20.980;2023-04-24T07:59:31;99264.81;;;21.70;32.85
17607;BME280;69222;52.242;20.980;2023-04-24T08:01:59;99273.13;;;21.52;33.61
17607;BME280;69222;52.242;20.980;2023-04-24T08:04:28;99271.44;;;21.38;34.31
17607;BME280;69222;52.242;20.980;2023-04-24T08:06:56;99266.72;;;21.17;34.07
17607;BME280;69222;52.242;20.980;2023-04-24T08:09:25;99272.25;;;21.00;35.09
17607;BME280;69222;52.242;20.980;2023-04-24T08:11:53;99267.84;;;20.88;35.44
17607;BME280;69222;52.242;20.980;2023-04-24T08:14:21;99272.72;;;20.80;35.10
17607;BME280;69222;52.242;20.980;2023-04-24T08:16:50;99272.38;;;20.71;35.58
17607;BME280;69222;52.242;20.980;2023-04-24T08:19:18;99274.03;;;20.60;35.89
17607;BME280;69222;52.242;20.980;2023-04-24T08:21:46;99275.84;;;20.45;35.89
17607;BME280;69222;52.242;20.980;2023-04-24T08:24:14;99275.56;;;20.35;36.45
17607;BME280;69222;52.242;20.980;2023-04-24T08:26:42;99275.13;;;20.28;36.71
17607;BME280;69222;52.242;20.980;2023-04-24T08:29:10;99279.09;;;20.21;36.76
17607;BME280;69222;52.242;20.980;2023-04-24T08:31:38;99273.88;;;20.21;36.99
17607;BME280;69222;52.242;20.980;2023-04-24T08:34:09;99285.81;;;20.25;37.15
17607;BME280;69222;52.242;20.980;2023-04-24T08:36:37;99278.03;;;20.24;37.45
17607;BME280;69222;52.242;20.980;2023-04-24T08:39:13;99283.28;;;20.24;37.61
17607;BME280;69222;52.242;20.980;2023-04-24T08:41:42;99277.28;;;20.36;37.56
17607;BME280;69222;52.242;20.980;2023-04-24T08:44:12;99272.28;;;20.46;37.26
17607;BME280;69222;52.242;20.980;2023-04-24T08:46:43;99276.72;;;20.58;37.51
17607;BME280;69222;52.242;20.980;2023-04-24T08:49:14;99269.75;;;20.71;37.14
17607;BME280;69222;52.242;20.980;2023-04-24T08:51:43;99272.00;;;20.90;37.37
17607;BME280;69222;52.242;20.980;2023-04-24T08:54:12;99269.34;;;21.17;36.90
17607;BME280;69222;52.242;20.980;2023-04-24T08:56:43;99267.25;;;21.48;36.67
17607;BME280;69222;52.242;20.980;2023-04-24T08:59:11;99268.09;;;21.98;35.88
17607;BME280;69222;52.242;20.980;2023-04-24T09:01:40;99263.44;;;22.27;35.10
17607;BME280;69222;52.242;20.980;2023-04-24T09:04:09;99262.94;;;22.46;34.69
17607;BME280;69222;52.242;20.980;2023-04-24T09:06:40;99261.75;;;22.85;34.15
17607;BME280;69222;52.242;20.980;2023-04-24T09:09:10;99263.44;;;23.22;33.11
17607;BME280;69222;52.242;20.980;2023-04-24T09:11:38;99264.66;;;23.96;33.45
17607;BME280;69222;52.242;20.980;2023-04-24T09:14:06;99258.66;;;25.44;31.38
17607;BME280;69222;52.242;20.980;2023-04-24T09:16:37;99250.66;;;28.51;26.03
17607;BME280;69222;52.242;20.980;2023-04-24T09:19:05;99248.25;;;30.79;22.27
17607;BME280;69222;52.242;20.980;2023-04-24T09:21:33;99235.84;;;31.52;21.44
17607;BME280;69222;52.242;20.980;2023-04-24T09:24:05;99246.03;;;31.88;20.85
17607;BME280;69222;52.242;20.980;2023-04-24T09:26:35;99245.28;;;30.83;21.08
17607;BME280;69222;52.242;20.980;2023-04-24T09:29:04;99235.53;;;29.31;21.90
17607;BME280;69222;52.242;20.980;2023-04-24T09:31:32;99238.97;;;27.71;23.44
17607;BME280;69222;52.242;20.980;2023-04-24T09:34:01;99241.16;;;26.23;24.91
17607;BME280;69222;52.242;20.980;2023-04-24T09:36:35;99244.38;;;25.16;26.98
17607;BME280;69222;52.242;20.980;2023-04-24T09:39:07;99229.06;;;24.68;27.95
17607;BME280;69222;52.242;20.980;2023-04-24T09:41:44;99228.69;;;26.64;26.47
17607;BME280;69222;52.242;20.980;2023-04-24T09:44:14;99224.31;;;29.80;22.49
17607;BME280;69222;52.242;20.980;2023-04-24T09:46:45;99218.88;;;32.61;19.00
17607;BME280;69222;52.242;20.980;2023-04-24T09:49:21;99212.78;;;35.01;16.06
17607;BME280;69222;52.242;20.980;2023-04-24T09:51:49;99213.38;;;37.00;14.09
17607;BME280;69222;52.242;20.980;2023-04-24T09:54:20;99208.09;;;38.29;12.41
17607;BME280;69222;52.242;20.980;2023-04-24T09:56:50;99208.00;;;38.49;12.40
17607;BME280;69222;52.242;20.980;2023-04-24T09:59:19;99201.00;;;38.91;12.59
17607;BME280;69222;52.242;20.980;2023-04-24T10:01:47;99194.13;;;39.99;11.70
17607;BME280;69222;52.242;20.980;2023-04-24T10:04:17;99197.91;;;40.98;11.20
17607;BME280;69222;52.242;20.980;2023-04-24T10:06:47;99189.44;;;41.70;10.71
17607;BME280;69222;52.242;20.980;2023-04-24T10:09:17;99182.78;;;41.90;10.46
17607;BME280;69222;52.242;20.980;2023-04-24T10:11:47;99186.28;;;42.02;10.06
17607;BME280;69222;52.242;20.980;2023-04-24T10:14:17;99184.78;;;41.83;9.80
17607;BME280;69222;52.242;20.980;2023-04-24T10:16:45;99180.84;;;41.45;11.01
17607;BME280;69222;52.242;20.980;2023-04-24T10:19:14;99178.47;;;41.48;10.76
17607;BME280;69222;52.242;20.980;2023-04-24T10:21:43;99173.53;;;41.45;10.66
17607;BME280;69222;52.242;20.980;2023-04-24T10:24:13;99163.22;;;39.16;11.28
17607;BME280;69222;52.242;20.980;2023-04-24T10:26:42;99177.94;;;37.37;12.75
17607;BME280;69222;52.242;20.980;2023-04-24T10:29:13;99167.03;;;35.92;14.23
17607;BME280;69222;52.242;20.980;2023-04-24T10:31:42;99170.53;;;35.31;14.92
17607;BME280;69222;52.242;20.980;2023-04-24T10:34:15;99171.63;;;35.09;15.74
17607;BME280;69222;52.242;20.980;2023-04-24T10:36:47;99166.25;;;35.02;15.91
17607;BME280;69222;52.242;20.980;2023-04-24T10:39:16;99157.66;;;34.57;16.22
17607;BME280;69222;52.242;20.980;2023-04-24T10:41:53;99157.50;;;33.58;16.87
17607;BME280;69222;52.242;20.980;2023-04-24T10:44:24;99150.47;;;32.68;17.97
17607;BME280;69222;52.242;20.980;2023-04-24T10:46:54;99154.59;;;32.10;18.25
17607;BME280;69222;52.242;20.980;2023-04-24T10:49:28;99160.44;;;31.83;19.54
17607;BME280;69222;52.242;20.980;2023-04-24T10:52:00;99163.41;;;31.88;18.86
17607;BME280;69222;52.242;20.980;2023-04-24T10:54:33;99148.41;;;31.56;18.45
17607;BME280;69222;52.242;20.980;2023-04-24T10:57:28;99155.47;;;29.95;19.46
17607;BME280;69222;52.242;20.980;2023-04-24T11:00:31;99152.34;;;29.15;20.75
17607;BME280;69222;52.242;20.980;2023-04-24T11:02:59;99155.97;;;29.05;21.74
17607;BME280;69222;52.242;20.980;2023-04-24T11:08:38;99149.78;;;29.90;21.16
17607;BME280;69222;52.242;20.980;2023-04-24T11:11:11;99146.88;;;30.17;19.99
17607;BME280;69222;52.242;20.980;2023-04-24T11:14:01;99148.50;;;30.10;19.73
17607;BME280;69222;52.242;20.980;2023-04-24T11:16:34;99139.47;;;29.28;19.29
17607;BME280;69222;52.242;20.980;2023-04-24T11:19:04;99143.94;;;28.31;20.30
17607;BME280;69222;52.242;20.980;2023-04-24T11:21:40;99147.50;;;27.86;20.48
17607;BME280;69222;52.242;20.980;2023-04-24T11:24:25;99147.03;;;27.73;20.87
17607;BME280;69222;52.242;20.980;2023-04-24T11:26:54;99137.75;;;27.87;21.52
17607;BME280;69222;52.242;20.980;2023-04-24T11:29:38;99151.38;;;27.92;20.66
17607;BME280;69222;52.242;20.980;2023-04-24T11:32:26;99142.41;;;28.03;20.69
17607;BME280;69222;52.242;20.980;2023-04-24T11:34:55;99136.03;;;27.96;20.71
17607;BME280;69222;52.242;20.980;2023-04-24T11:37:25;99142.91;;;27.88;21.37
17607;BME280;69222;52.242;20.980;2023-04-24T11:39:54;99137.53;;;27.80;21.46
17607;BME280;69222;52.242;20.980;2023-04-24T11:42:23;99135.75;;;27.71;21.31
17607;BME280;69222;52.242;20.980;2023-04-24T11:44:53;99137.03;;;27.39;20.37
17607;BME280;69222;52.242;20.980;2023-04-24T11:47:29;99132.66;;;26.83;21.35
17607;BME280;69222;52.242;20.980;2023-04-24T11:49:57;99126.88;;;26.41;21.56
17607;BME280;69222;52.242;20.980;2023-04-24T11:52:27;99135.66;;;26.22;21.48
17607;BME280;69222;52.242;20.980;2023-04-24T11:54:55;99129.97;;;26.07;21.39
17607;BME280;69222;52.242;20.980;2023-04-24T11:57:25;99128.00;;;25.90;21.21
17607;BME280;69222;52.242;20.980;2023-04-24T11:59:55;99127.88;;;25.82;22.04
17607;BME280;69222;52.242;20.980;2023-04-24T12:02:24;99124.94;;;25.85;22.14
17607;BME280;69222;52.242;20.980;2023-04-24T12:04:54;99123.16;;;25.85;22.78
17607;BME280;69222;52.242;20.980;2023-04-24T12:07:23;99114.81;;;25.80;22.50
17607;BME280;69222;52.242;20.980;2023-04-24T12:09:56;99116.59;;;25.80;22.39
17607;BME280;69222;52.242;20.980;2023-04-24T12:12:27;99114.22;;;25.67;22.35
17607;BME280;69222;52.242;20.980;2023-04-24T12:14:56;99110.84;;;25.55;22.74
17607;BME280;69222;52.242;20.980;2023-04-24T12:17:27;99102.28;;;25.13;22.45
17607;BME280;69222;52.242;20.980;2023-04-24T12:20:02;99107.72;;;25.00;22.97
17607;BME280;69222;52.242;20.980;2023-04-24T12:22:43;99102.69;;;25.18;23.25
17607;BME280;69222;52.242;20.980;2023-04-24T12:25:14;99094.41;;;25.32;22.95
17607;BME280;69222;52.242;20.980;2023-04-24T12:27:43;99086.66;;;25.40;21.96
17607;BME280;69222;52.242;20.980;2023-04-24T12:30:13;99095.09;;;25.24;22.48
17607;BME280;69222;52.242;20.980;2023-04-24T12:32:42;99097.59;;;24.95;22.98
17607;BME280;69222;52.242;20.980;2023-04-24T12:35:12;99099.66;;;24.92;22.74
17607;BME280;69222;52.242;20.980;2023-04-24T12:37:42;99089.94;;;24.92;21.63
17607;BME280;69222;52.242;20.980;2023-04-24T12:40:13;99082.44;;;24.88;21.74
17607;BME280;69222;52.242;20.980;2023-04-24T12:42:43;99080.97;;;24.64;23.09
17607;BME280;69222;52.242;20.980;2023-04-24T12:45:11;99075.69;;;24.64;23.47
17607;BME280;69222;52.242;20.980;2023-04-24T12:47:40;99088.13;;;24.83;23.69
17607;BME280;69222;52.242;20.980;2023-04-24T12:50:09;99093.53;;;25.12;24.07
17607;BME280;69222;52.242;20.980;2023-04-24T12:52:40;99126.16;;;25.21;24.33
17607;BME280;69222;52.242;20.980;2023-04-24T12:55:08;99114.25;;;24.33;25.92
17607;BME280;69222;52.242;20.980;2023-04-24T12:57:38;99134.81;;;23.75;26.69
17607;BME280;69222;52.242;20.980;2023-04-24T13:00:08;99138.81;;;23.47;27.33
17607;BME280;69222;52.242;20.980;2023-04-24T13:02:36;99130.56;;;23.40;28.00
17607;BME280;69222;52.242;20.980;2023-04-24T13:05:05;99137.72;;;23.38;28.14